Time;durP1;ratioP1;P1;durP2;ratioP2;P2;SDS_P1;SDS_P2;PMS_P1;PMS_P2;Temp;Humidity;BMP_temperature;BMP_pressure;BME280_temperature;BME280_humidity;BME280_pressure;Samples;Min_cycle;Max_cycle;Signal;HPM_P1;HPM_P2
2021/07/16 00:00:29;;;;;;;;;;;;;;;21.34;53.85;95664.78;1044537;28;1547;-69
2021/07/16 00:01:00;;;;;;;;;;;;;;;21.34;53.80;95669.25;1043661;28;1220;-71
2021/07/16 00:01:31;;;;;;;;;;;;;;;21.34;53.92;95664.78;1044562;28;970;-73
2021/07/16 00:02:02;;;;;;;;;;;;;;;21.34;53.92;95667.41;1043776;28;1210;-71
2021/07/16 00:02:32;;;;;;;;;;;;;;;21.34;53.85;95664.78;1038336;28;1225;-70
2021/07/16 00:03:02;;;;;;;;;;;;;;;21.35;53.49;95670.84;1042736;28;1097;-70
2021/07/16 00:03:33;;;;;;;;;;;;;;;21.35;53.78;95665.56;1044611;28;1372;-74
2021/07/16 00:04:03;;;;;;;;;;;;;;;21.35;53.72;95660.28;1043992;28;2606;-73
2021/07/16 00:04:33;;;;;;;;;;;;;;;21.35;53.65;95657.66;1042770;28;2565;-72
2021/07/16 00:05:04;;;;;;;;;;;;;;;21.35;53.87;95660.28;1045340;28;1155;-72
2021/07/16 00:05:34;;;;;;;;;;;;;;;21.34;53.87;95664.78;1045326;28;1022;-71
2021/07/16 00:06:04;;;;;;;;;;;;;;;21.34;53.91;95661.34;1038455;28;1195;-70
2021/07/16 00:06:35;;;;;;;;;;;;;;;21.34;53.65;95658.69;1036421;28;2867;-73
2021/07/16 00:07:05;;;;;;;;;;;;;;;21.34;53.81;95661.34;1038055;28;2481;-70
2021/07/16 00:07:36;;;;;;;;;;;;;;;21.34;53.67;95656.84;1041741;28;1203;-72
2021/07/16 00:08:07;;;;;;;;;;;;;;;21.33;53.77;95660.53;1048919;28;1150;-72
2021/07/16 00:08:37;;;;;;;;;;;;;;;21.33;53.59;95662.41;1044818;28;2370;-72
2021/07/16 00:09:07;;;;;;;;;;;;;;;21.34;53.53;95656.84;1045610;28;2351;-71
2021/07/16 00:09:37;;;;;;;;;;;;;;;21.33;53.70;95665.81;1037147;28;2654;-72
2021/07/16 00:10:09;;;;;;;;;;;;;;;21.34;53.56;95661.34;1040371;28;1135;-71
2021/07/16 00:10:41;;;;;;;;;;;;;;;21.33;53.57;95663.19;1041481;28;1468;-71
2021/07/16 00:11:11;;;;;;;;;;;;;;;21.34;53.77;95658.69;1043294;28;1158;-72
2021/07/16 00:11:42;;;;;;;;;;;;;;;21.34;53.71;95653.44;1045184;28;1340;-71
2021/07/16 00:12:12;;;;;;;;;;;;;;;21.34;53.62;95664.78;1036944;28;1314;-71
2021/07/16 00:12:42;;;;;;;;;;;;;;;21.33;53.71;95663.19;1037000;28;1167;-70
2021/07/16 00:13:13;;;;;;;;;;;;;;;21.34;53.53;95656.84;1036816;28;1180;-71
2021/07/16 00:13:43;;;;;;;;;;;;;;;21.34;53.80;95669.25;1041152;28;843;-71
2021/07/16 00:14:13;;;;;;;;;;;;;;;21.33;53.60;95662.41;1046530;28;1308;-73
2021/07/16 00:14:44;;;;;;;;;;;;;;;21.33;53.72;95657.91;1043669;28;2732;-72
2021/07/16 00:15:14;;;;;;;;;;;;;;;21.34;53.66;95663.97;1041084;28;1329;-70
2021/07/16 00:15:45;;;;;;;;;;;;;;;21.33;53.37;95660.53;1045395;28;1139;-71
2021/07/16 00:16:15;;;;;;;;;;;;;;;21.33;53.71;95660.53;1044231;28;1626;-71
2021/07/16 00:16:45;;;;;;;;;;;;;;;21.33;53.49;95665.06;1041132;28;1291;-68
2021/07/16 00:17:15;;;;;;;;;;;;;;;21.32;53.63;95661.63;1041549;28;1304;-72
2021/07/16 00:17:46;;;;;;;;;;;;;;;21.33;53.79;95654.50;1041348;28;1234;-71
2021/07/16 00:18:16;;;;;;;;;;;;;;;21.33;53.77;95662.41;1035996;28;1413;-72
2021/07/16 00:18:46;;;;;;;;;;;;;;;21.33;53.79;95660.53;1041903;28;1152;-71
2021/07/16 00:19:17;;;;;;;;;;;;;;;21.33;53.71;95652.63;1043465;28;2314;-73
2021/07/16 00:19:47;;;;;;;;;;;;;;;21.34;53.44;95653.44;1040245;28;2229;-70
2021/07/16 00:20:17;;;;;;;;;;;;;;;21.35;53.48;95662.94;1040710;28;1399;-71
2021/07/16 00:20:48;;;;;;;;;;;;;;;21.34;53.68;95653.44;1041021;28;1576;-71
2021/07/16 00:21:18;;;;;;;;;;;;;;;21.33;53.60;95654.50;1043762;28;2380;-71
2021/07/16 00:21:48;;;;;;;;;;;;;;;21.33;53.54;95659.78;1045244;28;1203;-71
2021/07/16 00:22:19;;;;;;;;;;;;;;;21.33;53.54;95662.41;1040853;28;1734;-74
2021/07/16 00:22:50;;;;;;;;;;;;;;;21.33;53.26;95657.91;1045468;28;1167;-72
2021/07/16 00:23:20;;;;;;;;;;;;;;;21.33;53.69;95649.22;1039100;28;2427;-73
2021/07/16 00:23:50;;;;;;;;;;;;;;;21.31;53.45;95644.22;1045148;28;1906;-70
2021/07/16 00:24:21;;;;;;;;;;;;;;;21.32;53.73;95648.44;1047305;28;1170;-71
2021/07/16 00:24:51;;;;;;;;;;;;;;;21.32;53.36;95645.81;1039888;28;2662;-72
2021/07/16 00:25:21;;;;;;;;;;;;;;;21.33;53.62;95652.63;1037969;28;1359;-69
2021/07/16 00:25:52;;;;;;;;;;;;;;;21.31;53.54;95649.50;1038123;28;1121;-70
2021/07/16 00:26:22;;;;;;;;;;;;;;;21.32;53.75;95655.56;1036793;28;1409;-71
2021/07/16 00:26:52;;;;;;;;;;;;;;;21.32;53.75;95658.19;1033943;28;1964;-71
2021/07/16 00:27:23;;;;;;;;;;;;;;;21.31;53.60;95646.84;1039767;28;1324;-72
2021/07/16 00:27:53;;;;;;;;;;;;;;;21.31;53.56;95649.50;1033990;28;1503;-72
2021/07/16 00:28:23;;;;;;;;;;;;;;;21.32;53.52;95655.56;1036435;28;1619;-75
2021/07/16 00:28:53;;;;;;;;;;;;;;;21.32;53.60;95648.44;1038718;28;1931;-70
2021/07/16 00:29:28;;;;;;;;;;;;;;;21.32;53.70;95653.72;1037622;28;1243;-71
2021/07/16 00:29:58;;;;;;;;;;;;;;;21.33;53.79;95662.41;1039964;28;2306;-71
2021/07/16 00:30:29;;;;;;;;;;;;;;;21.32;53.54;95661.63;1037266;28;1206;-71
2021/07/16 00:30:59;;;;;;;;;;;;;;;21.31;53.38;95652.13;1036407;28;1409;-70
2021/07/16 00:31:30;;;;;;;;;;;;;;;21.32;53.45;95659.00;1040147;28;1400;-71
2021/07/16 00:32:01;;;;;;;;;;;;;;;21.33;53.62;95651.88;1040667;28;1287;-72
2021/07/16 00:32:31;;;;;;;;;;;;;;;21.33;53.42;95651.88;1044466;28;1388;-71
2021/07/16 00:33:04;;;;;;;;;;;;;;;21.32;53.63;95660.84;1038922;28;1347;-71
2021/07/16 00:33:35;;;;;;;;;;;;;;;21.33;53.41;95659.78;1040826;28;1147;-73
2021/07/16 00:34:06;;;;;;;;;;;;;;;21.32;53.48;95655.56;1041075;28;1120;-71
2021/07/16 00:34:37;;;;;;;;;;;;;;;21.31;53.60;95665.31;1041318;28;784;-71
2021/07/16 00:35:07;;;;;;;;;;;;;;;21.32;53.35;95661.63;1043786;28;2245;-72
2021/07/16 00:35:38;;;;;;;;;;;;;;;21.32;53.53;95666.09;1041110;28;979;-71
2021/07/16 00:36:08;;;;;;;;;;;;;;;21.31;53.39;95667.19;1036753;28;1116;-71
2021/07/16 00:36:38;;;;;;;;;;;;;;;21.31;53.37;95665.31;1036813;28;1242;-72
2021/07/16 00:37:08;;;;;;;;;;;;;;;21.31;53.43;95669.81;1040988;28;1219;-71
2021/07/16 00:37:39;;;;;;;;;;;;;;;21.32;53.35;95668.75;1045394;28;792;-70
2021/07/16 00:38:09;;;;;;;;;;;;;;;21.31;53.56;95670.59;1042316;28;1657;-72
2021/07/16 00:38:40;;;;;;;;;;;;;;;21.31;53.44;95654.75;1044685;28;1190;-71
2021/07/16 00:39:11;;;;;;;;;;;;;;;21.31;53.40;95667.19;1048785;28;1155;-73
2021/07/16 00:39:41;;;;;;;;;;;;;;;21.32;53.53;95668.75;1049022;28;1177;-72
2021/07/16 00:40:12;;;;;;;;;;;;;;;21.32;53.35;95666.09;1042362;28;2300;-71
2021/07/16 00:40:42;;;;;;;;;;;;;;;21.32;53.34;95666.09;1041032;28;1467;-72
2021/07/16 00:41:12;;;;;;;;;;;;;;;21.31;53.37;95669.81;1040757;28;1210;-71
2021/07/16 00:41:42;;;;;;;;;;;;;;;21.30;53.52;95663.75;1046242;28;1408;-71
2021/07/16 00:42:13;;;;;;;;;;;;;;;21.31;53.65;95664.56;1045346;28;1159;-70
2021/07/16 00:42:43;;;;;;;;;;;;;;;21.30;53.33;95668.22;1045548;28;847;-71
2021/07/16 00:43:13;;;;;;;;;;;;;;;21.30;53.32;95662.97;1044953;28;1265;-72
2021/07/16 00:43:44;;;;;;;;;;;;;;;21.29;53.53;95667.44;1045482;28;1146;-71
2021/07/16 00:44:16;;;;;;;;;;;;;;;21.30;53.43;95662.97;1045425;28;811;-70
2021/07/16 00:44:47;;;;;;;;;;;;;;;21.29;53.59;95672.72;1040604;28;1278;-69
2021/07/16 00:45:17;;;;;;;;;;;;;;;21.29;53.45;95671.94;1039690;28;2342;-70
2021/07/16 00:45:47;;;;;;;;;;;;;;;21.29;53.40;95674.59;1037398;28;1191;-71
2021/07/16 00:46:18;;;;;;;;;;;;;;;21.29;53.54;95672.72;1035086;28;1319;-72
2021/07/16 00:46:48;;;;;;;;;;;;;;;21.28;53.33;95671.16;1037978;28;1914;-71
2021/07/16 00:47:18;;;;;;;;;;;;;;;21.31;53.37;95669.81;1039638;28;1962;-72
2021/07/16 00:47:48;;;;;;;;;;;;;;;21.30;53.40;95673.50;1045644;28;1350;-71
2021/07/16 00:48:19;;;;;;;;;;;;;;;21.30;53.30;95665.59;1042156;28;1754;-71
2021/07/16 00:48:49;;;;;;;;;;;;;;;21.31;53.58;95670.59;1046072;28;1175;-71
2021/07/16 00:49:19;;;;;;;;;;;;;;;21.30;53.46;95673.50;1049071;28;1145;-70
2021/07/16 00:49:49;;;;;;;;;;;;;;;21.29;53.37;95674.59;1045279;28;1179;-71
2021/07/16 00:50:26;;;;;;;;;;;;;;;21.29;53.56;95671.94;1038459;28;2334;-71
2021/07/16 00:50:57;;;;;;;;;;;;;;;21.31;53.54;95675.09;1038461;28;1416;-71
2021/07/16 00:51:27;;;;;;;;;;;;;;;21.30;53.39;95673.50;1037661;28;703;-70
2021/07/16 00:51:57;;;;;;;;;;;;;;;21.31;53.53;95678.50;1037571;28;1160;-70
2021/07/16 00:52:28;;;;;;;;;;;;;;;21.30;53.20;95669.03;1040185;28;2639;-72
2021/07/16 00:52:58;;;;;;;;;;;;;;;21.30;53.64;95679.56;1038288;28;2291;-72
2021/07/16 00:53:28;;;;;;;;;;;;;;;21.30;53.31;95678.78;1043571;28;1731;-72
2021/07/16 00:53:58;;;;;;;;;;;;;;;21.31;53.58;95677.72;1045604;28;2306;-71
2021/07/16 00:54:29;;;;;;;;;;;;;;;21.30;53.58;95684.84;1036921;28;2298;-71
2021/07/16 00:54:59;;;;;;;;;;;;;;;21.29;53.62;95678.00;1033728;28;1231;-71
2021/07/16 00:55:30;;;;;;;;;;;;;;;21.30;53.37;95678.78;1035922;28;2211;-72
2021/07/16 00:56:00;;;;;;;;;;;;;;;21.29;53.43;95675.34;1036808;28;1129;-72
2021/07/16 00:56:31;;;;;;;;;;;;;;;21.30;53.29;95673.50;1045247;28;1242;-71
2021/07/16 00:57:02;;;;;;;;;;;;;;;21.30;53.25;95674.31;1044188;28;1751;-71
2021/07/16 00:57:32;;;;;;;;;;;;;;;21.30;53.68;95676.16;1036913;28;1517;-72
2021/07/16 00:58:03;;;;;;;;;;;;;;;21.30;53.21;95673.50;1037490;28;1196;-73
2021/07/16 00:58:33;;;;;;;;;;;;;;;21.29;53.32;95670.09;1037073;28;1187;-70
2021/07/16 00:59:04;;;;;;;;;;;;;;;21.29;53.58;95677.22;1038491;28;1342;-71
2021/07/16 00:59:34;;;;;;;;;;;;;;;21.29;53.53;95675.34;1044846;28;852;-70
2021/07/16 01:00:05;;;;;;;;;;;;;;;21.28;53.41;95673.00;1044153;28;2333;-72
2021/07/16 01:00:36;;;;;;;;;;;;;;;21.28;53.18;95675.63;1040007;28;2583;-70
2021/07/16 01:01:06;;;;;;;;;;;;;;;21.28;53.26;95665.88;1044615;28;1290;-70
2021/07/16 01:01:37;;;;;;;;;;;;;;;21.27;53.41;95668.81;1045061;28;1175;-72
2021/07/16 01:02:07;;;;;;;;;;;;;;;21.27;53.27;95663.53;1039421;28;1214;-71
2021/07/16 01:02:37;;;;;;;;;;;;;;;21.28;53.18;95673.78;1036998;28;784;-70
2021/07/16 01:03:08;;;;;;;;;;;;;;;21.27;53.15;95666.19;1036506;28;1285;-71
2021/07/16 01:03:38;;;;;;;;;;;;;;;21.28;53.58;95662.47;1033089;28;748;-71
2021/07/16 01:04:08;;;;;;;;;;;;;;;21.26;53.25;95668.00;1035319;28;2280;-71
2021/07/16 01:04:39;;;;;;;;;;;;;;;21.26;53.32;95670.66;1036885;28;1367;-72
2021/07/16 01:05:10;;;;;;;;;;;;;;;21.26;53.46;95667.22;1032574;28;2387;-74
2021/07/16 01:05:42;;;;;;;;;;;;;;;21.25;53.27;95668.28;1032855;28;780;-69
2021/07/16 01:06:12;;;;;;;;;;;;;;;21.25;53.42;95665.63;1032279;28;1819;-72
2021/07/16 01:06:42;;;;;;;;;;;;;;;21.25;53.34;95666.44;1037442;28;809;-72
2021/07/16 01:07:13;;;;;;;;;;;;;;;21.27;53.33;95668.81;1044871;28;1977;-69
2021/07/16 01:07:43;;;;;;;;;;;;;;;21.27;53.52;95663.53;1045515;28;819;-72
2021/07/16 01:08:14;;;;;;;;;;;;;;;21.26;53.40;95657.47;1044350;28;1174;-72
2021/07/16 01:08:44;;;;;;;;;;;;;;;21.26;53.49;95656.69;1045445;28;1175;-73
2021/07/16 01:09:14;;;;;;;;;;;;;;;21.26;53.39;95668.00;1049104;28;799;-72
2021/07/16 01:09:49;;;;;;;;;;;;;;;21.26;53.53;95662.75;1042550;28;1182;-72
2021/07/16 01:10:20;;;;;;;;;;;;;;;21.26;53.47;95662.75;1034498;28;2382;-72
2021/07/16 01:10:50;;;;;;;;;;;;;;;21.26;53.45;95656.69;1033070;28;1282;-71
2021/07/16 01:11:21;;;;;;;;;;;;;;;21.27;53.34;95664.31;1029521;28;1150;-71
2021/07/16 01:11:52;;;;;;;;;;;;;;;21.28;53.64;95670.38;1029262;28;1006;-71
2021/07/16 01:12:23;;;;;;;;;;;;;;;21.28;53.64;95667.72;1028767;28;966;-70
2021/07/16 01:12:53;;;;;;;;;;;;;;;21.29;53.30;95666.69;1029211;28;1242;-71
2021/07/16 01:13:24;;;;;;;;;;;;;;;21.29;53.36;95661.41;1030300;28;1117;-74
2021/07/16 01:13:54;;;;;;;;;;;;;;;21.28;53.39;95665.09;1034262;28;1208;-71
2021/07/16 01:14:24;;;;;;;;;;;;;;;21.27;53.45;95659.03;1032417;28;995;-72
2021/07/16 01:14:54;;;;;;;;;;;;;;;21.26;53.42;95657.47;1028111;28;1157;-72
2021/07/16 01:15:25;;;;;;;;;;;;;;;21.28;53.47;95659.81;1026133;28;2497;-71
2021/07/16 01:15:56;;;;;;;;;;;;;;;21.28;53.32;95659.81;1030264;28;1141;-71
2021/07/16 01:16:26;;;;;;;;;;;;;;;21.28;53.62;95655.34;1032927;28;990;-73
2021/07/16 01:16:57;;;;;;;;;;;;;;;21.27;53.36;95659.03;1028549;28;1160;-71
2021/07/16 01:17:29;;;;;;;;;;;;;;;21.28;53.61;95655.34;1028876;28;1350;-71
2021/07/16 01:17:59;;;;;;;;;;;;;;;21.27;53.56;95658.25;1029018;28;1149;-71
2021/07/16 01:18:29;;;;;;;;;;;;;;;21.26;53.32;95660.09;1034986;28;1116;-71
2021/07/16 01:19:00;;;;;;;;;;;;;;;21.27;53.59;95650.34;1037298;28;1136;-75
2021/07/16 01:19:49;;;;;;;;;;;;;;;21.26;53.27;95648.78;1040410;28;737;-72
2021/07/16 01:20:20;;;;;;;;;;;;;;;21.27;53.37;95653.00;1037782;28;2569;-71
2021/07/16 01:20:50;;;;;;;;;;;;;;;21.26;53.47;95648.78;1043894;28;1238;-73
2021/07/16 01:21:21;;;;;;;;;;;;;;;21.25;53.54;95650.63;1043298;28;1635;-71
2021/07/16 01:21:53;;;;;;;;;;;;;;;21.27;53.55;95653.00;1044918;28;2355;-72
2021/07/16 01:22:24;;;;;;;;;;;;;;;21.26;53.32;95651.41;1045371;28;2881;-72
2021/07/16 01:22:54;;;;;;;;;;;;;;;21.26;53.48;95649.56;1036524;28;1200;-72
2021/07/16 01:23:25;;;;;;;;;;;;;;;21.27;53.24;95650.34;1037119;28;1187;-71
2021/07/16 01:23:55;;;;;;;;;;;;;;;21.28;53.50;95647.44;1036704;28;1166;-71
2021/07/16 01:24:25;;;;;;;;;;;;;;;21.27;53.41;95643.22;1032825;28;1263;-71
2021/07/16 01:24:56;;;;;;;;;;;;;;;21.28;53.33;95654.53;1045033;28;1191;-71
2021/07/16 01:25:29;;;;;;;;;;;;;;;21.28;53.41;95647.44;1037298;28;2840;-71
2021/07/16 01:26:00;;;;;;;;;;;;;;;21.27;53.38;95647.72;1031186;28;1204;-71
2021/07/16 01:26:31;;;;;;;;;;;;;;;21.26;53.56;95643.50;1034960;28;1128;-71
2021/07/16 01:27:01;;;;;;;;;;;;;;;21.25;53.61;95647.97;1033004;28;1922;-72
2021/07/16 01:27:31;;;;;;;;;;;;;;;21.26;53.39;95643.50;1033033;28;1404;-70
2021/07/16 01:28:02;;;;;;;;;;;;;;;21.26;53.35;95646.13;1036558;28;1347;-71
2021/07/16 01:28:39;;;;;;;;;;;;;;;21.25;53.43;95642.72;1036098;28;1730;-74
2021/07/16 01:29:11;;;;;;;;;;;;;;;21.26;53.38;95640.88;1041021;28;1417;-71
2021/07/16 01:29:42;;;;;;;;;;;;;;;21.25;53.39;95634.00;1042013;28;1124;-71
2021/07/16 01:30:12;;;;;;;;;;;;;;;21.25;53.39;95637.44;1038942;28;2412;-73
2021/07/16 01:30:43;;;;;;;;;;;;;;;21.25;53.55;95634.00;1036157;28;1472;-68
2021/07/16 01:31:13;;;;;;;;;;;;;;;21.25;53.40;95634.00;1036294;28;1475;-71
2021/07/16 01:31:44;;;;;;;;;;;;;;;21.25;53.35;95631.38;1032617;28;1558;-70
2021/07/16 01:32:15;;;;;;;;;;;;;;;21.25;53.35;95636.63;1028874;28;1401;-71
2021/07/16 01:32:45;;;;;;;;;;;;;;;21.26;53.49;95635.59;1027571;28;1591;-71
2021/07/16 01:33:17;;;;;;;;;;;;;;;21.25;53.57;95634.78;1028484;28;902;-71
2021/07/16 01:33:47;;;;;;;;;;;;;;;21.26;53.61;95632.94;1037660;28;1263;-72
2021/07/16 01:34:18;;;;;;;;;;;;;;;21.26;53.55;95635.59;1040899;28;1766;-71
2021/07/16 01:34:48;;;;;;;;;;;;;;;21.25;53.65;95631.38;1040217;28;1538;-71
2021/07/16 01:35:19;;;;;;;;;;;;;;;21.24;53.49;95630.59;1039395;28;2646;-72
2021/07/16 01:35:49;;;;;;;;;;;;;;;21.26;53.47;95630.31;1043784;28;1640;-71
2021/07/16 01:36:20;;;;;;;;;;;;;;;21.25;53.46;95631.38;1045318;28;795;-72
2021/07/16 01:36:50;;;;;;;;;;;;;;;21.25;53.48;95626.88;1045275;28;1013;-70
2021/07/16 01:37:20;;;;;;;;;;;;;;;21.25;53.59;95628.72;1044646;28;1463;-71
2021/07/16 01:37:51;;;;;;;;;;;;;;;21.25;53.48;95628.72;1045034;28;1123;-71
2021/07/16 01:38:21;;;;;;;;;;;;;;;21.24;53.64;95622.69;1039454;28;1906;-71
2021/07/16 01:38:51;;;;;;;;;;;;;;;21.23;53.48;95620.31;1037621;28;1623;-72
2021/07/16 01:39:22;;;;;;;;;;;;;;;21.24;53.35;95627.97;1032185;28;1542;-72
2021/07/16 01:39:52;;;;;;;;;;;;;;;21.24;53.53;95625.34;1033790;28;1101;-71
2021/07/16 01:40:23;;;;;;;;;;;;;;;21.24;53.26;95622.69;1037793;28;2611;-71
2021/07/16 01:40:53;;;;;;;;;;;;;;;21.24;53.32;95625.34;1043352;28;1495;-71
2021/07/16 01:41:23;;;;;;;;;;;;;;;21.25;53.31;95623.47;1044653;28;1485;-72
2021/07/16 01:41:54;;;;;;;;;;;;;;;21.25;53.47;95616.34;1044453;28;1253;-72
2021/07/16 01:42:24;;;;;;;;;;;;;;;21.26;53.38;95619.78;1043766;28;1280;-71
2021/07/16 01:43:00;;;;;;;;;;;;;;;21.25;53.56;95624.25;1042291;28;1371;-71
2021/07/16 01:43:30;;;;;;;;;;;;;;;21.25;53.54;95618.97;1044373;28;1400;-72
2021/07/16 01:44:02;;;;;;;;;;;;;;;21.25;53.50;95620.81;1044830;28;1380;-72
2021/07/16 01:44:32;;;;;;;;;;;;;;;21.25;53.38;95620.81;1044632;28;1360;-72
2021/07/16 01:45:09;;;;;;;;;;;;;;;21.24;53.58;95620.06;1044382;28;1194;-72
2021/07/16 01:45:39;;;;;;;;;;;;;;;21.25;53.58;95620.81;1046645;28;2872;-72
2021/07/16 01:46:10;;;;;;;;;;;;;;;21.25;53.38;95624.25;1043715;28;1423;-73
2021/07/16 01:46:42;;;;;;;;;;;;;;;21.25;53.33;95610.28;1036755;28;1156;-72
2021/07/16 01:47:12;;;;;;;;;;;;;;;21.25;53.55;95623.47;1036410;28;1983;-71
2021/07/16 01:47:45;;;;;;;;;;;;;;;21.25;53.49;95618.19;1031855;28;1895;-71
2021/07/16 01:48:15;;;;;;;;;;;;;;;21.25;53.38;95618.19;1036325;28;1557;-71
2021/07/16 01:48:45;;;;;;;;;;;;;;;21.24;53.24;95622.69;1039923;28;1198;-71
2021/07/16 01:49:16;;;;;;;;;;;;;;;21.24;53.32;95616.63;1042196;28;1360;-71
2021/07/16 01:49:46;;;;;;;;;;;;;;;21.24;53.47;95621.91;1040310;28;1371;-72
2021/07/16 01:50:16;;;;;;;;;;;;;;;21.23;53.67;95615.84;1039145;28;2557;-73
2021/07/16 01:50:47;;;;;;;;;;;;;;;21.24;53.51;95627.97;1033143;28;2310;-72
2021/07/16 01:51:18;;;;;;;;;;;;;;;21.23;53.30;95620.31;1035048;28;1358;-70
2021/07/16 01:51:48;;;;;;;;;;;;;;;21.24;53.39;95624.53;1035733;28;2905;-72
2021/07/16 01:52:18;;;;;;;;;;;;;;;21.24;53.30;95627.19;1040285;28;1262;-71
2021/07/16 01:52:49;;;;;;;;;;;;;;;21.24;53.48;95627.19;1034504;28;1404;-74
2021/07/16 01:53:19;;;;;;;;;;;;;;;21.22;53.35;95627.47;1039429;28;1603;-71
2021/07/16 01:53:49;;;;;;;;;;;;;;;21.22;53.31;95627.47;1042763;28;2464;-71
2021/07/16 01:54:20;;;;;;;;;;;;;;;21.22;53.28;95626.66;1040507;28;1038;-71
2021/07/16 01:54:50;;;;;;;;;;;;;;;21.23;53.29;95630.88;1046426;28;1171;-71
2021/07/16 01:55:21;;;;;;;;;;;;;;;21.22;53.38;95630.09;1045913;28;2477;-70
2021/07/16 01:55:51;;;;;;;;;;;;;;;21.22;53.31;95631.94;1049749;28;1094;-72
2021/07/16 01:56:22;;;;;;;;;;;;;;;21.21;53.07;95630.34;1048623;28;1271;-72
2021/07/16 01:56:52;;;;;;;;;;;;;;;21.22;53.14;95630.09;1048414;28;1225;-71
2021/07/16 01:57:22;;;;;;;;;;;;;;;21.21;53.22;95627.72;1044422;28;1185;-71
2021/07/16 01:57:53;;;;;;;;;;;;;;;21.21;53.35;95633.78;1044866;28;1186;-74
2021/07/16 01:58:24;;;;;;;;;;;;;;;21.21;53.50;95633.00;1044689;28;1118;-71
2021/07/16 01:58:54;;;;;;;;;;;;;;;21.21;53.25;95627.72;1042581;28;1457;-71
2021/07/16 01:59:24;;;;;;;;;;;;;;;21.21;53.43;95633.00;1044588;28;1018;-70
2021/07/16 01:59:54;;;;;;;;;;;;;;;21.21;53.30;95630.34;1044167;28;1376;-71
2021/07/16 02:00:26;;;;;;;;;;;;;;;21.20;53.47;95629.59;1045328;28;2857;-71
2021/07/16 02:00:56;;;;;;;;;;;;;;;21.20;53.46;95629.59;1038505;28;1401;-70
2021/07/16 02:01:28;;;;;;;;;;;;;;;21.20;53.45;95626.16;1044688;28;1412;-72
2021/07/16 02:01:58;;;;;;;;;;;;;;;21.21;53.55;95627.72;1041832;28;1381;-71
2021/07/16 02:02:28;;;;;;;;;;;;;;;21.20;53.44;95634.88;1043807;28;1242;-71
2021/07/16 02:03:00;;;;;;;;;;;;;;;21.22;53.36;95637.22;1036719;28;1335;-71
2021/07/16 02:03:30;;;;;;;;;;;;;;;21.21;53.30;95625.09;1032366;28;1771;-70
2021/07/16 02:04:00;;;;;;;;;;;;;;;21.21;53.38;95625.09;1034290;28;2518;-71
2021/07/16 02:04:31;;;;;;;;;;;;;;;21.21;53.42;95627.72;1036163;28;772;-72
2021/07/16 02:05:01;;;;;;;;;;;;;;;21.20;53.28;95628.81;1043711;28;1152;-69
2021/07/16 02:05:31;;;;;;;;;;;;;;;21.21;53.10;95628.50;1043031;28;2817;-73
2021/07/16 02:06:02;;;;;;;;;;;;;;;21.21;53.13;95630.34;1045622;28;1246;-72
2021/07/16 02:06:32;;;;;;;;;;;;;;;21.21;53.44;95627.72;1044660;28;1281;-72
2021/07/16 02:07:02;;;;;;;;;;;;;;;21.22;53.22;95639.84;1038129;28;1988;-73
2021/07/16 02:07:33;;;;;;;;;;;;;;;21.21;53.40;95627.72;1036809;28;776;-72
2021/07/16 02:08:04;;;;;;;;;;;;;;;21.22;53.19;95634.56;1039263;28;1203;-73
2021/07/16 02:08:34;;;;;;;;;;;;;;;21.20;53.30;95634.06;1040361;28;714;-72
2021/07/16 02:09:05;;;;;;;;;;;;;;;21.21;53.20;95633.00;1043863;28;1057;-76
2021/07/16 02:09:35;;;;;;;;;;;;;;;21.21;53.52;95640.91;1044750;28;1271;-72
2021/07/16 02:10:06;;;;;;;;;;;;;;;21.22;53.27;95632.72;1040614;28;1241;-73
2021/07/16 02:10:36;;;;;;;;;;;;;;;21.21;53.46;95635.63;1039294;28;2519;-72
2021/07/16 02:11:06;;;;;;;;;;;;;;;21.21;53.30;95644.34;1038740;28;1292;-70
2021/07/16 02:11:37;;;;;;;;;;;;;;;21.22;53.33;95637.22;1040823;28;1182;-71
2021/07/16 02:12:07;;;;;;;;;;;;;;;21.21;53.44;95636.44;1043414;28;1064;-71
2021/07/16 02:12:38;;;;;;;;;;;;;;;21.21;53.37;95643.53;1040663;28;1014;-71
2021/07/16 02:13:08;;;;;;;;;;;;;;;21.21;53.17;95635.63;1041691;28;1688;-73
2021/07/16 02:13:38;;;;;;;;;;;;;;;21.22;53.46;95645.13;1041843;28;1138;-72
2021/07/16 02:14:08;;;;;;;;;;;;;;;21.21;53.49;95641.69;1048276;28;1212;-71
2021/07/16 02:14:39;;;;;;;;;;;;;;;21.21;53.49;95646.97;1048991;28;1076;-71
2021/07/16 02:15:12;;;;;;;;;;;;;;;21.21;53.52;95654.09;1045002;28;1154;-70
2021/07/16 02:15:43;;;;;;;;;;;;;;;21.20;53.54;95645.41;1039714;28;2475;-71
2021/07/16 02:16:13;;;;;;;;;;;;;;;21.20;53.36;95642.78;1048045;28;1286;-72
2021/07/16 02:16:43;;;;;;;;;;;;;;;21.20;53.55;95650.69;1040762;28;791;-71
2021/07/16 02:17:14;;;;;;;;;;;;;;;21.21;53.43;95643.53;1043792;28;1148;-71
2021/07/16 02:17:44;;;;;;;;;;;;;;;21.21;53.28;95644.34;1045221;28;1150;-72
2021/07/16 02:18:15;;;;;;;;;;;;;;;21.21;53.52;95643.53;1044374;28;1416;-72
2021/07/16 02:18:54;;;;;;;;;;;;;;;21.20;53.22;95647.25;1040560;28;1203;-72
2021/07/16 02:19:25;;;;;;;;;;;;;;;21.20;53.30;95632.22;1040232;28;1077;-72
2021/07/16 02:19:55;;;;;;;;;;;;;;;21.21;53.17;95633.00;1036462;28;1195;-71
2021/07/16 02:20:33;;;;;;;;;;;;;;;21.20;53.37;95632.22;1038161;28;2502;-72
2021/07/16 02:21:03;;;;;;;;;;;;;;;21.21;53.36;95633.00;1040724;28;1696;-71
2021/07/16 02:21:34;;;;;;;;;;;;;;;21.20;53.52;95637.50;1045005;28;1342;-71
2021/07/16 02:22:05;;;;;;;;;;;;;;;21.21;53.45;95633.00;1043821;28;2583;-71
2021/07/16 02:22:36;;;;;;;;;;;;;;;21.21;53.34;95628.50;1041984;28;2276;-71
2021/07/16 02:23:07;;;;;;;;;;;;;;;21.21;53.46;95631.16;1043176;28;2493;-72
2021/07/16 02:23:37;;;;;;;;;;;;;;;21.22;53.33;95629.31;1036422;28;1426;-72
2021/07/16 02:24:07;;;;;;;;;;;;;;;21.22;53.34;95634.56;1039802;28;1216;-71
2021/07/16 02:24:37;;;;;;;;;;;;;;;21.23;53.37;95641.41;1036598;28;1023;-71
2021/07/16 02:25:08;;;;;;;;;;;;;;;21.23;53.59;95638.78;1039601;28;1216;-71
2021/07/16 02:25:38;;;;;;;;;;;;;;;21.22;53.39;95635.38;1037560;28;2982;-71
2021/07/16 02:26:09;;;;;;;;;;;;;;;21.23;53.50;95636.13;1036870;28;1204;-72
2021/07/16 02:26:39;;;;;;;;;;;;;;;21.23;53.36;95633.50;1032934;28;1484;-71
2021/07/16 02:27:09;;;;;;;;;;;;;;;21.23;53.56;95638.78;1043996;28;1961;-71
2021/07/16 02:27:40;;;;;;;;;;;;;;;21.23;53.59;95644.03;1043164;28;1128;-71
2021/07/16 02:28:12;;;;;;;;;;;;;;;21.21;53.64;95633.78;1041009;28;1226;-69
2021/07/16 02:28:42;;;;;;;;;;;;;;;21.22;53.59;95643.28;1040460;28;1495;-71
2021/07/16 02:29:12;;;;;;;;;;;;;;;21.22;53.28;95634.56;1035352;28;1535;-71
2021/07/16 02:29:42;;;;;;;;;;;;;;;21.22;53.62;95635.38;1036594;28;1003;-70
2021/07/16 02:30:13;;;;;;;;;;;;;;;21.22;53.39;95638.00;1036732;28;1176;-71
2021/07/16 02:30:43;;;;;;;;;;;;;;;21.23;53.34;95636.94;1035435;28;2469;-71
2021/07/16 02:31:14;;;;;;;;;;;;;;;21.23;53.39;95636.13;1043494;28;1406;-72
2021/07/16 02:31:48;;;;;;;;;;;;;;;21.23;53.55;95639.56;1042846;28;1842;-71
2021/07/16 02:32:19;;;;;;;;;;;;;;;21.23;53.50;95644.84;1044495;28;1237;-71
2021/07/16 02:32:49;;;;;;;;;;;;;;;21.23;53.53;95638.78;1045516;28;1179;-72
2021/07/16 02:33:20;;;;;;;;;;;;;;;21.24;53.56;95643.78;1048898;28;536;-72
2021/07/16 02:33:51;;;;;;;;;;;;;;;21.23;53.70;95644.84;1047802;28;1265;-71
2021/07/16 02:34:21;;;;;;;;;;;;;;;21.24;53.57;95640.34;1044883;28;788;-71
2021/07/16 02:34:51;;;;;;;;;;;;;;;21.23;53.58;95639.56;1044625;28;1150;-73
2021/07/16 02:35:22;;;;;;;;;;;;;;;21.24;53.58;95648.25;1044709;28;1194;-71
2021/07/16 02:35:52;;;;;;;;;;;;;;;21.23;53.36;95647.47;1042140;28;2541;-72
2021/07/16 02:36:23;;;;;;;;;;;;;;;21.23;53.50;95646.69;1039335;28;2680;-71
2021/07/16 02:36:53;;;;;;;;;;;;;;;21.23;53.64;95647.47;1036514;28;2129;-71
2021/07/16 02:37:24;;;;;;;;;;;;;;;21.23;53.31;95638.78;1037068;28;1242;-73
2021/07/16 02:37:54;;;;;;;;;;;;;;;21.23;53.36;95642.19;1037484;28;1137;-71
2021/07/16 02:38:24;;;;;;;;;;;;;;;21.24;53.56;95643.00;1035846;28;1701;-71
2021/07/16 02:38:54;;;;;;;;;;;;;;;21.23;53.38;95646.69;1043377;28;1296;-70
2021/07/16 02:39:25;;;;;;;;;;;;;;;21.23;53.51;95646.69;1044066;28;1267;-70
2021/07/16 02:39:55;;;;;;;;;;;;;;;21.22;53.62;95638.00;1046037;28;1419;-71
2021/07/16 02:40:25;;;;;;;;;;;;;;;21.23;53.37;95649.31;1044368;28;1845;-71
2021/07/16 02:40:55;;;;;;;;;;;;;;;21.23;53.49;95646.69;1044995;28;2926;-71
2021/07/16 02:41:26;;;;;;;;;;;;;;;21.23;53.48;95646.69;1045171;28;1470;-73
2021/07/16 02:41:56;;;;;;;;;;;;;;;21.23;53.42;95644.03;1045173;28;1203;-71
2021/07/16 02:42:26;;;;;;;;;;;;;;;21.24;53.18;95645.63;1044933;28;1186;-72